Time;durP1;ratioP1;P1;durP2;ratioP2;P2;SDS_P1;SDS_P2;PMS_P1;PMS_P2;Temp;Humidity;BMP_temperature;BMP_pressure;BME280_temperature;BME280_humidity;BME280_pressure;Samples;Min_cycle;Max_cycle;Signal;HPM_P1;HPM_P2
2022/04/22 00:00:09;;;;;;;17.97;13.30;;;9.30;99.90;;;;;;4956415;29;20177;-83
2022/04/22 00:02:37;;;;;;;17.40;13.53;;;9.30;99.90;;;;;;4955614;29;21007;-82
2022/04/22 00:05:04;;;;;;;13.60;12.10;;;9.30;99.90;;;;;;4956352;29;20301;-83
2022/04/22 00:10:11;;;;;;;16.83;12.00;;;9.30;99.90;;;;;;5289568;23;20242;-79
2022/04/22 00:12:38;;;;;;;17.80;13.07;;;9.40;99.90;;;;;;4934117;29;20179;-85
2022/04/22 00:15:05;;;;;;;16.93;12.37;;;9.40;99.90;;;;;;4943404;29;20181;-86
2022/04/22 00:17:31;;;;;;;16.53;12.73;;;9.40;99.90;;;;;;4957114;29;20189;-85
2022/04/22 00:19:57;;;;;;;14.23;11.70;;;9.40;99.90;;;;;;4956417;29;20177;-86
2022/04/22 00:22:23;;;;;;;15.97;13.17;;;9.40;99.90;;;;;;4957385;29;20193;-86
2022/04/22 00:24:49;;;;;;;17.73;12.57;;;9.40;99.90;;;;;;4956248;29;20189;-86
2022/04/22 00:27:15;;;;;;;16.20;12.83;;;9.30;99.90;;;;;;4956080;29;20192;-80
2022/04/22 00:29:40;;;;;;;15.63;12.33;;;9.30;99.90;;;;;;4956296;29;20197;-80
2022/04/22 00:32:06;;;;;;;16.93;12.63;;;9.40;99.90;;;;;;4955827;29;20181;-80
2022/04/22 00:34:32;;;;;;;17.30;12.00;;;9.40;99.90;;;;;;4955961;29;20180;-80
2022/04/22 00:36:58;;;;;;;15.27;11.13;;;9.40;99.90;;;;;;4955710;29;20181;-79
2022/04/22 00:39:24;;;;;;;14.60;10.90;;;9.40;99.90;;;;;;4956596;29;20174;-80
2022/04/22 00:41:50;;;;;;;15.33;10.20;;;9.40;99.90;;;;;;4955472;29;20189;-80
2022/04/22 00:44:16;;;;;;;14.87;10.13;;;9.40;99.90;;;;;;4955270;29;20216;-80
2022/04/22 00:46:42;;;;;;;14.43;9.37;;;9.40;99.90;;;;;;4956781;29;20252;-81
2022/04/22 00:49:07;;;;;;;13.97;8.53;;;9.40;99.90;;;;;;4954340;28;20182;-81
2022/04/22 00:51:33;;;;;;;10.60;7.80;;;9.40;99.90;;;;;;4955317;29;20173;-81
2022/04/22 00:54:02;;;;;;;9.47;6.93;;;9.40;99.90;;;;;;4955486;29;20173;-82
2022/04/22 00:56:29;;;;;;;14.53;7.17;;;9.40;99.90;;;;;;4955594;29;20169;-85
2022/04/22 00:58:57;;;;;;;8.47;5.70;;;9.30;99.90;;;;;;4955295;29;20188;-87
2022/04/22 01:01:24;;;;;;;8.93;5.70;;;9.30;99.90;;;;;;4955453;29;20173;-79
2022/04/22 01:12:06;;;;;;;9.60;4.37;;;9.10;99.90;;;;;;4956650;29;20192;-83
2022/04/22 01:14:33;;;;;;;6.53;3.90;;;9.00;99.90;;;;;;4955424;29;20189;-83
2022/04/22 01:17:00;;;;;;;6.03;3.37;;;9.00;99.90;;;;;;4955256;29;20524;-82
2022/04/22 01:19:26;;;;;;;6.67;3.50;;;8.90;99.90;;;;;;4954737;29;20181;-81
2022/04/22 01:21:51;;;;;;;4.80;3.20;;;8.90;99.90;;;;;;4956032;29;20177;-79
2022/04/22 01:24:17;;;;;;;5.90;2.90;;;8.80;99.90;;;;;;4956332;29;20205;-81
2022/04/22 01:26:45;;;;;;;7.90;2.90;;;8.90;99.90;;;;;;4954668;29;20200;-83
2022/04/22 01:29:13;;;;;;;5.17;3.27;;;8.80;99.90;;;;;;4954936;29;20208;-81
2022/04/22 01:31:39;;;;;;;3.93;2.87;;;8.80;99.90;;;;;;4954876;29;20214;-83
2022/04/22 01:34:05;;;;;;;7.30;3.00;;;8.80;99.90;;;;;;4955780;29;20169;-82
2022/04/22 01:36:30;;;;;;;4.97;2.90;;;8.70;99.90;;;;;;4954739;29;20192;-80
2022/04/22 01:38:56;;;;;;;4.97;3.33;;;8.70;99.90;;;;;;4954714;29;20177;-81
2022/04/22 01:41:22;;;;;;;5.40;2.70;;;8.70;99.90;;;;;;4956085;29;20177;-80
2022/04/22 01:43:47;;;;;;;5.03;2.60;;;8.60;99.90;;;;;;4953952;29;20197;-82
2022/04/22 01:46:15;;;;;;;6.73;2.97;;;8.60;99.90;;;;;;4936998;29;20208;-80
2022/04/22 01:48:41;;;;;;;4.70;2.80;;;8.60;99.90;;;;;;4935270;29;20294;-79
2022/04/22 01:51:06;;;;;;;5.07;2.90;;;8.50;99.90;;;;;;4936865;29;20178;-79
2022/04/22 01:53:32;;;;;;;6.47;3.10;;;8.60;99.90;;;;;;4936956;29;20170;-79
2022/04/22 01:55:58;;;;;;;7.17;3.20;;;8.50;99.90;;;;;;4935499;29;20613;-81
2022/04/22 01:58:24;;;;;;;5.47;2.97;;;8.60;99.90;;;;;;4935569;29;20186;-81
2022/04/22 02:00:49;;;;;;;4.63;2.97;;;8.50;99.90;;;;;;4939139;29;20512;-79
2022/04/22 02:03:15;;;;;;;5.53;2.70;;;8.50;99.90;;;;;;4940021;29;20210;-80
2022/04/22 02:05:41;;;;;;;3.93;2.83;;;8.50;99.90;;;;;;4939197;29;20237;-79
2022/04/22 02:08:08;;;;;;;3.53;2.83;;;8.40;99.90;;;;;;4940456;29;20261;-81
2022/04/22 02:10:34;;;;;;;5.47;3.00;;;8.40;99.90;;;;;;4940229;29;20230;-81
2022/04/22 02:13:00;;;;;;;3.53;2.67;;;8.40;99.90;;;;;;4939041;29;20190;-79
2022/04/22 02:15:26;;;;;;;4.90;2.60;;;8.40;99.90;;;;;;4954123;29;20189;-80
2022/04/22 02:17:53;;;;;;;4.93;2.77;;;8.40;99.90;;;;;;4957872;29;20189;-80
2022/04/22 02:20:19;;;;;;;3.63;2.57;;;8.40;99.90;;;;;;4958211;29;20581;-81
2022/04/22 02:22:44;;;;;;;3.50;2.37;;;8.40;99.90;;;;;;4957938;29;20216;-81
2022/04/22 02:25:10;;;;;;;4.43;2.50;;;8.40;99.90;;;;;;4958226;29;20189;-82
2022/04/22 02:30:21;;;;;;;4.13;2.63;;;8.30;99.90;;;;;;4959507;29;20181;-82
2022/04/22 02:32:46;;;;;;;5.23;2.87;;;8.30;99.90;;;;;;4957681;29;20639;-82
2022/04/22 02:35:13;;;;;;;6.43;2.20;;;8.30;99.90;;;;;;4959266;29;20169;-82
2022/04/22 02:37:39;;;;;;;4.90;2.30;;;8.30;99.90;;;;;;4957784;29;20181;-83
2022/04/22 02:40:06;;;;;;;4.97;2.27;;;8.30;99.90;;;;;;4957861;29;20232;-82
2022/04/22 02:45:27;;;;;;;3.37;2.03;;;8.30;99.90;;;;;;4958860;29;20244;-85
2022/04/22 02:47:56;;;;;;;2.67;2.10;;;8.20;99.90;;;;;;4958808;29;20309;-84
2022/04/22 02:50:23;;;;;;;4.77;2.20;;;8.20;99.90;;;;;;4957697;29;20344;-82
2022/04/22 02:52:49;;;;;;;5.17;2.70;;;8.20;99.90;;;;;;4958758;29;20177;-82
2022/04/22 02:55:15;;;;;;;7.00;2.30;;;8.10;99.90;;;;;;4957547;29;20165;-84
2022/04/22 02:57:44;;;;;;;2.37;2.00;;;8.10;99.90;;;;;;4957265;29;20200;-83
2022/04/22 03:00:13;;;;;;;4.67;2.43;;;8.00;99.90;;;;;;4957548;29;20654;-81
2022/04/22 03:02:38;;;;;;;5.43;2.60;;;8.00;99.90;;;;;;4958282;29;20201;-82
2022/04/22 03:05:05;;;;;;;4.27;2.50;;;8.00;99.90;;;;;;4958652;29;20688;-82
2022/04/22 03:07:30;;;;;;;3.67;2.40;;;8.00;99.90;;;;;;4957309;29;20181;-82
2022/04/22 03:09:56;;;;;;;6.03;2.20;;;7.90;99.90;;;;;;4956942;29;20235;-83
2022/04/22 03:12:22;;;;;;;8.90;2.57;;;7.90;99.90;;;;;;4957276;28;20184;-82
2022/04/22 03:14:48;;;;;;;5.40;2.57;;;7.80;99.90;;;;;;4957265;29;20209;-82
2022/04/22 03:17:13;;;;;;;2.57;2.10;;;7.80;99.90;;;;;;4958433;29;20285;-84
2022/04/22 03:19:39;;;;;;;4.87;2.60;;;7.90;99.90;;;;;;4958196;29;20185;-82
2022/04/22 03:22:05;;;;;;;4.83;2.57;;;7.80;99.90;;;;;;4958296;29;20557;-82
2022/04/22 03:24:31;;;;;;;4.70;2.57;;;7.70;99.90;;;;;;4958209;29;20608;-82
2022/04/22 03:26:57;;;;;;;4.90;2.70;;;7.70;99.90;;;;;;4956906;29;20221;-82
2022/04/22 03:29:22;;;;;;;4.67;2.30;;;7.70;99.90;;;;;;4956859;29;20193;-82
2022/04/22 03:31:48;;;;;;;7.17;2.77;;;7.80;99.90;;;;;;4956809;29;20530;-84
2022/04/22 03:34:14;;;;;;;3.73;2.20;;;7.80;99.90;;;;;;4956629;29;20177;-83
2022/04/22 03:36:39;;;;;;;5.00;2.60;;;7.80;99.90;;;;;;4958364;29;20192;-84
2022/04/22 03:39:05;;;;;;;9.93;2.70;;;7.80;99.90;;;;;;4956659;29;20181;-86
2022/04/22 03:41:31;;;;;;;4.43;2.37;;;7.70;99.90;;;;;;4957188;29;20189;-92
2022/04/22 03:43:56;;;;;;;4.73;2.57;;;7.70;99.90;;;;;;4957264;29;20225;-90
2022/04/22 03:46:22;;;;;;;6.03;2.27;;;7.70;99.90;;;;;;4958412;29;20165;-88
2022/04/22 03:48:47;;;;;;;4.70;2.30;;;7.70;99.90;;;;;;4956700;29;20529;-84
2022/04/22 03:51:13;;;;;;;4.63;2.33;;;7.70;99.90;;;;;;4956620;29;20186;-83
2022/04/22 03:53:40;;;;;;;5.53;2.53;;;7.70;99.90;;;;;;4956412;29;20239;-83
2022/04/22 03:58:51;;;;;;;6.37;2.40;;;7.60;99.90;;;;;;4957935;29;20200;-82
2022/04/22 04:01:16;;;;;;;7.80;2.90;;;7.60;99.90;;;;;;4956349;29;20204;-81
2022/04/22 04:03:43;;;;;;;5.17;3.07;;;7.60;99.90;;;;;;4946282;29;20209;-84
2022/04/22 04:06:09;;;;;;;5.40;2.83;;;7.40;99.90;;;;;;4937244;29;20262;-84
2022/04/22 04:08:34;;;;;;;6.80;2.77;;;7.40;99.90;;;;;;4936754;29;20191;-87
2022/04/22 04:16:25;;;;;;;7.77;2.87;;;7.30;99.90;;;;;;4938732;29;20172;-87
2022/04/22 04:18:51;;;;;;;5.43;2.77;;;7.30;99.90;;;;;;4936679;29;20185;-85
2022/04/22 04:24:00;;;;;;;7.67;2.73;;;7.20;99.90;;;;;;4937759;29;20288;-83
2022/04/22 04:26:27;;;;;;;12.10;3.03;;;7.20;99.90;;;;;;4936666;29;20186;-83
2022/04/22 04:28:53;;;;;;;5.47;2.77;;;7.20;99.90;;;;;;4936626;29;20186;-84
2022/04/22 04:31:19;;;;;;;5.30;2.90;;;7.20;99.90;;;;;;4937794;29;20182;-83
2022/04/22 04:33:46;;;;;;;9.20;2.90;;;7.10;99.90;;;;;;4927734;29;20273;-84
2022/04/22 04:36:12;;;;;;;6.40;3.17;;;7.00;99.90;;;;;;4918989;29;20530;-84
2022/04/22 04:38:40;;;;;;;5.23;3.33;;;7.00;99.90;;;;;;4917569;29;20213;-86
2022/04/22 04:41:08;;;;;;;4.67;3.03;;;7.00;99.90;;;;;;4918816;29;20175;-84
2022/04/22 04:43:40;;;;;;;4.13;2.97;;;7.00;99.90;;;;;;4917376;29;20539;-84
2022/04/22 04:46:06;;;;;;;5.23;3.03;;;7.00;99.90;;;;;;4919080;29;20155;-91
2022/04/22 04:48:35;;;;;;;5.83;2.97;;;7.00;99.90;;;;;;4917914;29;20222;-92
2022/04/22 04:51:00;;;;;;;7.13;3.60;;;7.00;99.90;;;;;;4938007;29;20197;-90
2022/04/22 04:53:26;;;;;;;6.47;3.20;;;7.00;99.90;;;;;;4936828;29;20605;-92
2022/04/22 04:55:53;;;;;;;7.80;3.17;;;7.10;99.90;;;;;;4937087;29;20229;-93
2022/04/22 04:58:22;;;;;;;4.87;3.03;;;7.00;99.90;;;;;;4937996;29;20261;-90
2022/04/22 05:00:48;;;;;;;9.03;3.40;;;6.90;99.90;;;;;;4936623;29;20213;-85
2022/04/22 05:03:14;;;;;;;7.60;3.40;;;6.90;99.90;;;;;;4932849;29;20214;-83
2022/04/22 05:05:41;;;;;;;6.07;3.50;;;6.90;99.90;;;;;;4918508;29;20178;-83
2022/04/22 05:08:07;;;;;;;9.10;3.60;;;6.90;99.90;;;;;;4918692;29;20174;-84
2022/04/22 05:10:34;;;;;;;8.10;4.17;;;6.80;99.90;;;;;;4918254;29;20305;-85
2022/04/22 05:13:01;;;;;;;5.37;3.30;;;6.80;99.90;;;;;;4918184;29;20182;-82
2022/04/22 05:15:27;;;;;;;10.10;3.80;;;6.90;99.90;;;;;;4918597;29;20174;-85
2022/04/22 05:17:55;;;;;;;7.33;3.60;;;6.90;99.90;;;;;;4918189;29;20175;-88
2022/04/22 05:20:25;;;;;;;8.10;4.17;;;6.80;99.90;;;;;;4918279;29;20182;-84
2022/04/22 05:22:51;;;;;;;7.70;3.77;;;6.80;99.90;;;;;;4916989;29;20212;-84
2022/04/22 05:25:17;;;;;;;6.27;3.40;;;6.70;99.90;;;;;;4918076;29;20613;-84
2022/04/22 05:27:43;;;;;;;7.70;4.10;;;6.70;99.90;;;;;;4916670;29;20186;-86
2022/04/22 05:32:55;;;;;;;5.63;3.57;;;6.60;99.90;;;;;;4918696;29;20283;-86
2022/04/22 05:35:22;;;;;;;8.07;4.40;;;6.40;99.90;;;;;;4921371;29;20536;-87
2022/04/22 05:37:51;;;;;;;8.73;4.60;;;6.50;99.90;;;;;;4918524;29;20187;-84
2022/04/22 05:40:19;;;;;;;12.10;4.17;;;6.50;99.90;;;;;;4920586;29;20610;-82
2022/04/22 05:42:47;;;;;;;9.63;4.00;;;6.40;99.90;;;;;;4920245;29;20297;-84
2022/04/22 05:45:14;;;;;;;8.60;4.50;;;6.50;99.90;;;;;;4920652;29;20178;-85
2022/04/22 05:47:41;;;;;;;8.50;4.47;;;6.50;99.90;;;;;;4930549;29;20182;-85
2022/04/22 05:50:09;;;;;;;13.10;5.20;;;6.60;99.90;;;;;;4938525;29;20182;-88
2022/04/22 05:52:36;;;;;;;8.63;4.70;;;6.40;99.90;;;;;;4929686;29;20197;-82
2022/04/22 05:55:03;;;;;;;17.90;6.47;;;6.40;99.90;;;;;;4920040;29;20673;-85
2022/04/22 05:57:33;;;;;;;13.43;6.07;;;6.30;99.90;;;;;;4920902;29;20170;-87
2022/04/22 06:00:00;;;;;;;13.33;6.27;;;6.30;99.90;;;;;;4920772;29;20566;-85
2022/04/22 06:02:26;;;;;;;11.30;6.37;;;6.30;99.90;;;;;;4920572;29;20179;-84
2022/04/22 06:04:53;;;;;;;12.20;6.13;;;6.30;99.90;;;;;;4936733;29;20204;-85
2022/04/22 06:07:19;;;;;;;12.00;5.87;;;6.40;99.90;;;;;;4939125;29;20182;-83
2022/04/22 06:12:30;;;;;;;8.90;5.60;;;6.40;99.90;;;;;;4940847;29;20176;-84
2022/04/22 06:14:59;;;;;;;10.40;6.07;;;6.50;99.90;;;;;;4939438;29;20272;-84
2022/04/22 06:17:27;;;;;;;14.07;6.10;;;6.40;99.90;;;;;;4940447;29;20594;-84
2022/04/22 06:19:53;;;;;;;13.93;6.23;;;6.50;99.90;;;;;;4939773;29;20174;-84
2022/04/22 06:22:19;;;;;;;13.17;6.97;;;6.60;99.90;;;;;;4938970;29;20305;-84
2022/04/22 06:24:44;;;;;;;13.07;6.30;;;6.60;99.90;;;;;;4939259;29;20621;-83
2022/04/22 06:27:10;;;;;;;11.07;6.73;;;6.60;99.90;;;;;;4939060;29;20613;-83
2022/04/22 06:29:37;;;;;;;20.07;7.00;;;6.50;99.90;;;;;;4938768;29;20276;-85
2022/04/22 06:32:03;;;;;;;11.10;6.87;;;6.60;99.90;;;;;;4939215;29;20260;-88
2022/04/22 06:34:30;;;;;;;13.77;7.47;;;6.50;99.90;;;;;;4952998;29;20204;-87
2022/04/22 06:36:56;;;;;;;11.23;7.23;;;6.50;99.90;;;;;;4959232;29;20200;-84
2022/04/22 06:39:21;;;;;;;11.20;6.70;;;6.50;99.90;;;;;;4922560;29;20190;-85
2022/04/22 06:47:16;;;;;;;14.77;7.57;;;6.60;99.90;;;;;;4921005;29;20658;-86
2022/04/22 06:49:42;;;;;;;14.53;8.03;;;6.60;99.90;;;;;;4919210;29;20187;-92
2022/04/22 06:52:09;;;;;;;11.63;6.90;;;6.30;99.90;;;;;;4919319;29;20318;-84
2022/04/22 06:54:36;;;;;;;13.00;7.90;;;6.40;99.90;;;;;;4919592;29;20198;-89
2022/04/22 06:57:03;;;;;;;15.70;7.70;;;6.50;99.90;;;;;;4919110;29;20175;-83
2022/04/22 06:59:31;;;;;;;14.97;7.57;;;6.60;99.90;;;;;;4920671;29;20178;-83
2022/04/22 07:01:57;;;;;;;16.73;7.67;;;6.60;99.90;;;;;;4919815;29;20183;-84
2022/04/22 07:04:24;;;;;;;15.73;7.27;;;6.70;99.90;;;;;;4945751;29;20309;-89
2022/04/22 07:06:50;;;;;;;12.57;8.13;;;6.70;99.90;;;;;;4957815;29;20521;-85
2022/04/22 07:09:17;;;;;;;17.40;9.47;;;6.90;99.90;;;;;;4922974;29;20242;-85
2022/04/22 07:11:44;;;;;;;15.77;9.13;;;6.90;99.90;;;;;;4958180;29;20177;-85
2022/04/22 07:14:10;;;;;;;11.40;7.83;;;6.90;99.90;;;;;;4922544;29;20187;-84
2022/04/22 07:16:44;;;;;;;16.37;9.60;;;6.90;99.90;;;;;;4919218;29;20214;-87
2022/04/22 07:19:10;;;;;;;17.50;8.90;;;6.80;99.90;;;;;;4919897;29;20610;-85
2022/04/22 07:21:36;;;;;;;14.73;9.50;;;6.90;99.90;;;;;;4920032;29;20171;-84
2022/04/22 07:24:02;;;;;;;16.17;10.03;;;6.90;99.90;;;;;;4918954;29;20242;-85
2022/04/22 07:26:30;;;;;;;17.70;10.10;;;7.00;99.90;;;;;;4918335;29;20178;-83
2022/04/22 07:28:58;;;;;;;16.27;10.03;;;7.10;99.90;;;;;;4918400;29;20186;-85
2022/04/22 07:31:28;;;;;;;17.30;9.70;;;7.00;99.90;;;;;;4936587;29;20217;-85
2022/04/22 07:33:54;;;;;;;15.60;9.87;;;7.10;99.90;;;;;;4919537;29;20218;-88
2022/04/22 07:36:20;;;;;;;18.83;10.33;;;7.10;99.90;;;;;;4920146;29;20261;-84
2022/04/22 07:38:45;;;;;;;15.00;9.77;;;7.20;99.90;;;;;;4918536;29;20233;-85
2022/04/22 07:41:11;;;;;;;15.50;9.80;;;7.20;99.90;;;;;;4948862;29;20567;-84
2022/04/22 07:49:07;;;;;;;17.67;10.70;;;7.40;99.90;;;;;;4919335;29;20233;-87
2022/04/22 07:51:33;;;;;;;15.17;9.57;;;7.40;99.90;;;;;;4918285;29;20182;-85
2022/04/22 07:54:00;;;;;;;16.67;11.13;;;7.30;99.90;;;;;;4918327;29;20194;-83
2022/04/22 07:56:27;;;;;;;15.00;10.87;;;7.30;99.90;;;;;;4918291;29;20221;-85
2022/04/22 07:58:53;;;;;;;18.87;11.70;;;7.30;99.90;;;;;;4917530;29;20214;-84
2022/04/22 08:01:19;;;;;;;20.17;12.93;;;7.40;99.90;;;;;;4918073;29;20244;-84
2022/04/22 08:03:44;;;;;;;23.03;11.47;;;7.30;99.90;;;;;;4918881;29;20214;-86
2022/04/22 08:06:11;;;;;;;20.13;12.30;;;7.30;99.90;;;;;;4917932;29;20599;-87
2022/04/22 08:08:37;;;;;;;19.93;12.03;;;7.40;99.90;;;;;;4916817;29;20194;-85
2022/04/22 08:11:02;;;;;;;24.97;13.80;;;7.50;99.90;;;;;;4932664;29;20753;-83
2022/04/22 08:13:28;;;;;;;17.00;12.03;;;7.70;99.90;;;;;;4938104;29;20229;-84
2022/04/22 08:15:54;;;;;;;19.17;13.37;;;7.80;99.90;;;;;;4936969;29;20533;-88
2022/04/22 08:18:19;;;;;;;19.10;12.63;;;7.80;99.90;;;;;;4937159;29;20594;-91
2022/04/22 08:20:45;;;;;;;19.43;13.83;;;7.60;99.90;;;;;;4936975;29;20245;-85
2022/04/22 08:23:11;;;;;;;19.30;14.03;;;7.60;99.90;;;;;;4937506;29;20275;-87
2022/04/22 08:25:37;;;;;;;23.20;15.07;;;7.60;99.90;;;;;;4937209;29;20186;-86
2022/04/22 08:28:04;;;;;;;21.47;14.13;;;7.70;99.90;;;;;;4927252;29;20506;-83
2022/04/22 08:30:30;;;;;;;22.67;16.20;;;7.70;99.90;;;;;;4917991;29;20182;-86
2022/04/22 08:32:56;;;;;;;24.17;16.20;;;7.80;99.90;;;;;;4918166;29;20517;-87
2022/04/22 08:35:22;;;;;;;25.27;17.37;;;7.80;99.90;;;;;;4917540;29;20281;-83
2022/04/22 08:37:47;;;;;;;25.90;17.13;;;8.00;99.90;;;;;;4917797;29;20203;-82
2022/04/22 08:40:14;;;;;;;24.73;16.20;;;8.20;99.90;;;;;;4917294;29;20194;-83
2022/04/22 08:42:41;;;;;;;26.40;17.40;;;8.50;99.90;;;;;;4917366;29;20211;-82
2022/04/22 08:45:09;;;;;;;24.87;16.60;;;8.90;99.90;;;;;;4917178;29;20195;-82
2022/04/22 08:50:21;;;;;;;22.20;15.70;;;9.30;99.90;;;;;;4917972;29;20197;-83
2022/04/22 08:52:56;;;;;;;23.00;15.43;;;9.70;99.90;;;;;;4944866;29;20181;-84
2022/04/22 08:55:23;;;;;;;21.70;16.07;;;9.80;99.90;;;;;;4955472;29;20176;-83
2022/04/22 08:57:49;;;;;;;25.77;16.00;;;9.80;99.90;;;;;;4956306;29;20177;-85
2022/04/22 09:00:16;;;;;;;19.93;15.70;;;9.90;99.90;;;;;;4956754;29;20170;-82
2022/04/22 09:02:42;;;;;;;23.10;16.90;;;9.90;99.90;;;;;;4937340;29;20300;-83
2022/04/22 09:05:09;;;;;;;22.43;16.00;;;10.00;99.90;;;;;;4922819;29;20294;-89
2022/04/22 09:07:37;;;;;;;22.37;16.70;;;10.00;99.90;;;;;;4918778;29;20547;-85
2022/04/22 09:10:03;;;;;;;21.03;16.60;;;10.10;99.90;;;;;;4917819;29;20573;-87
2022/04/22 09:12:28;;;;;;;25.43;15.50;;;10.20;99.90;;;;;;4916877;29;20178;-85
2022/04/22 09:14:58;;;;;;;18.43;15.17;;;10.50;99.90;;;;;;4916969;29;20190;-85
2022/04/22 09:17:29;;;;;;;20.00;15.00;;;10.40;99.90;;;;;;4917219;29;20618;-84
2022/04/22 09:19:57;;;;;;;17.13;12.80;;;10.30;99.90;;;;;;4917009;29;20630;-89
2022/04/22 09:22:24;;;;;;;17.40;13.60;;;10.30;99.90;;;;;;4926944;29;20191;-88
2022/04/22 09:24:54;;;;;;;17.13;12.13;;;10.20;99.90;;;;;;4937508;29;20249;-87
2022/04/22 09:27:30;;;;;;;15.23;10.93;;;10.30;99.90;;;;;;4935557;29;20506;-94
2022/04/22 09:29:56;;;;;;;18.07;10.93;;;10.50;99.90;;;;;;4936373;29;20182;-89
2022/04/22 09:32:32;;;;;;;15.43;9.30;;;10.80;99.90;;;;;;4932954;29;20572;-88
2022/04/22 09:35:12;;;;;;;15.55;8.77;;;11.10;99.90;;;;;;4917195;29;20587;-86
2022/04/22 09:43:36;;;;;;;11.13;8.75;;;11.40;99.90;;;;;;4917971;29;20680;-89
2022/04/22 09:46:02;;;;;;;12.05;8.48;;;11.40;99.90;;;;;;4917144;29;20228;-88
2022/04/22 09:48:44;;;;;;;11.30;8.32;;;11.40;99.90;;;;;;4917067;29;20183;-86
2022/04/22 09:51:39;;;;;;;13.73;8.25;;;11.20;99.90;;;;;;4917512;29;20179;-86
2022/04/22 09:54:08;;;;;;;17.92;8.45;;;11.20;99.90;;;;;;4916162;29;20675;-90
2022/04/22 09:56:33;;;;;;;10.60;7.35;;;11.10;99.90;;;;;;4935969;29;20252;-85
2022/04/22 09:59:23;;;;;;;10.88;7.35;;;11.30;99.90;;;;;;4937193;29;20605;-88
2022/04/22 10:01:49;;;;;;;16.87;7.83;;;11.30;99.90;;;;;;4926046;29;20190;-87
2022/04/22 10:04:18;;;;;;;11.15;7.43;;;11.30;99.90;;;;;;4917883;29;20214;-85
2022/04/22 10:06:45;;;;;;;13.45;7.80;;;11.60;99.90;;;;;;4916621;29;20689;-90
2022/04/22 10:09:14;;;;;;;12.25;7.60;;;12.20;99.90;;;;;;4917769;29;20227;-88
2022/04/22 10:11:40;;;;;;;12.70;6.93;;;12.40;99.90;;;;;;4918191;29;20310;-86
2022/04/22 10:14:11;;;;;;;12.13;6.45;;;12.50;99.90;;;;;;4920975;29;20201;-90
2022/04/22 10:16:38;;;;;;;12.10;7.45;;;12.70;99.90;;;;;;4937319;29;20170;-86
2022/04/22 10:19:07;;;;;;;11.75;7.60;;;13.00;99.90;;;;;;4932761;29;20185;-84
2022/04/22 10:21:34;;;;;;;9.73;6.55;;;13.30;99.90;;;;;;4922549;29;20241;-85
2022/04/22 10:24:00;;;;;;;10.48;6.75;;;13.50;99.90;;;;;;4938934;29;20218;-84
2022/04/22 10:26:26;;;;;;;10.25;6.75;;;13.60;99.90;;;;;;4939028;29;20182;-84
2022/04/22 10:28:53;;;;;;;9.13;6.68;;;13.60;99.90;;;;;;4940211;29;20186;-86
2022/04/22 10:31:20;;;;;;;10.27;7.13;;;13.60;99.90;;;;;;4932600;29;20263;-88
2022/04/22 10:33:47;;;;;;;11.05;6.53;;;13.40;99.90;;;;;;4921349;29;20206;-86
2022/04/22 10:36:18;;;;;;;10.15;6.65;;;13.20;99.90;;;;;;4919884;29;20187;-84
2022/04/22 10:38:48;;;;;;;13.68;6.97;;;13.00;99.90;;;;;;4919798;29;20190;-89
2022/04/22 10:41:17;;;;;;;13.32;7.20;;;12.80;99.90;;;;;;4921408;29;20166;-86
2022/04/22 10:43:46;;;;;;;11.82;6.70;;;12.80;99.90;;;;;;4919801;29;20222;-88
2022/04/22 10:49:13;;;;;;;9.30;6.38;;;13.10;99.90;;;;;;4921537;29;20234;-84
2022/04/22 10:52:03;;;;;;;12.10;6.85;;;13.40;99.90;;;;;;4923719;29;20197;-86
2022/04/22 10:54:54;;;;;;;12.48;6.63;;;13.50;99.90;;;;;;4938840;29;20174;-88
2022/04/22 10:57:24;;;;;;;11.00;6.60;;;13.60;99.90;;;;;;4930781;29;20186;-90
2022/04/22 11:00:11;;;;;;;13.10;7.15;;;13.90;99.90;;;;;;4919880;29;20178;-88
2022/04/22 11:02:43;;;;;;;11.27;6.57;;;14.10;99.90;;;;;;4920741;29;20214;-85
2022/04/22 11:08:05;;;;;;;10.98;6.90;;;14.60;99.90;;;;;;4920793;29;20197;-90
2022/04/22 11:10:46;;;;;;;11.32;6.45;;;14.70;99.90;;;;;;4920857;29;20237;-91
2022/04/22 11:13:33;;;;;;;10.57;6.70;;;15.00;99.90;;;;;;4918635;29;20625;-86
2022/04/22 11:16:11;;;;;;;10.55;6.32;;;15.10;99.90;;;;;;4918492;29;20639;-84
2022/04/22 11:18:41;;;;;;;10.05;5.72;;;15.50;99.90;;;;;;4919616;29;20274;-87
2022/04/22 11:21:13;;;;;;;9.00;6.05;;;15.50;99.90;;;;;;4938252;29;20605;-88
2022/04/22 11:23:47;;;;;;;11.10;6.40;;;15.40;99.90;;;;;;4919328;29;20222;-87
2022/04/22 11:26:15;;;;;;;12.63;6.03;;;15.60;99.90;;;;;;4919380;29;20189;-83
2022/04/22 11:28:44;;;;;;;8.15;5.70;;;15.50;99.90;;;;;;4919218;29;20265;-83
2022/04/22 11:31:12;;;;;;;8.90;5.88;;;15.10;99.90;;;;;;4918844;29;20174;-88
2022/04/22 11:33:57;;;;;;;9.63;5.50;;;15.20;99.90;;;;;;4917959;29;20187;-84
2022/04/22 11:36:25;;;;;;;10.32;5.82;;;15.30;99.90;;;;;;4918611;29;20240;-88
2022/04/22 11:38:52;;;;;;;10.35;5.88;;;15.30;99.90;;;;;;4921111;29;20470;-86
2022/04/22 11:41:18;;;;;;;11.60;5.97;;;15.50;99.90;;;;;;4927966;29;20174;-86
2022/04/22 11:43:46;;;;;;;9.68;6.32;;;15.70;99.90;;;;;;4926265;29;20286;-88
2022/04/22 11:46:14;;;;;;;6.80;4.75;;;15.70;99.90;;;;;;4928473;29;20205;-86
2022/04/22 11:48:53;;;;;;;8.05;5.38;;;15.70;99.90;;;;;;4926509;29;20170;-86
2022/04/22 11:51:20;;;;;;;10.63;5.25;;;15.20;99.90;;;;;;4924554;29;20237;-86
2022/04/22 11:53:50;;;;;;;7.90;5.10;;;15.30;99.90;;;;;;4932445;29;20198;-86
2022/04/22 11:56:18;;;;;;;11.10;5.75;;;15.80;99.90;;;;;;4923833;29;20289;-84
2022/04/22 11:58:44;;;;;;;9.20;4.90;;;16.00;99.90;;;;;;4937111;29;20178;-82
2022/04/22 12:06:42;;;;;;;7.38;4.38;;;16.10;99.90;;;;;;4928795;29;20586;-84
2022/04/22 12:09:08;;;;;;;6.72;3.90;;;16.30;99.90;;;;;;4920359;29;20245;-84
2022/04/22 12:11:44;;;;;;;6.53;4.00;;;16.30;99.90;;;;;;4919459;29;20175;-82
2022/04/22 12:14:11;;;;;;;7.43;4.35;;;16.40;99.90;;;;;;4935187;29;20659;-84
2022/04/22 12:16:38;;;;;;;9.23;4.30;;;16.40;99.90;;;;;;4936673;29;20689;-86
2022/04/22 12:19:07;;;;;;;6.93;4.25;;;16.50;99.90;;;;;;4936837;29;20198;-84
2022/04/22 12:21:34;;;;;;;9.48;4.45;;;16.90;99.90;;;;;;4936779;29;20194;-84
2022/04/22 12:24:02;;;;;;;6.72;4.30;;;17.10;99.90;;;;;;4930132;29;20237;-84
2022/04/22 12:26:33;;;;;;;5.15;4.22;;;17.00;99.90;;;;;;4936576;29;20181;-84
2022/04/22 12:29:07;;;;;;;7.63;4.20;;;16.60;99.90;;;;;;4936353;29;20193;-83
2022/04/22 12:31:33;;;;;;;6.20;3.40;;;16.40;99.90;;;;;;4937667;29;20182;-83
2022/04/22 12:34:04;;;;;;;5.18;2.67;;;16.20;99.90;;;;;;4938340;29;20177;-83
2022/04/22 12:36:37;;;;;;;4.30;2.30;;;16.00;99.90;;;;;;4936325;29;20182;-83
2022/04/22 12:39:08;;;;;;;3.13;2.38;;;15.70;99.90;;;;;;4936671;29;20288;-84
2022/04/22 12:41:47;;;;;;;3.85;2.00;;;15.60;99.90;;;;;;4937861;29;20178;-84
2022/04/22 12:44:13;;;;;;;6.32;2.30;;;15.60;99.90;;;;;;4937597;29;20300;-84
2022/04/22 12:52:36;;;;;;;4.55;2.85;;;15.70;99.90;;;;;;4938103;29;20224;-84
2022/04/22 12:55:10;;;;;;;3.78;2.50;;;15.60;99.90;;;;;;4937981;29;20193;-84
2022/04/22 12:57:36;;;;;;;6.13;2.92;;;15.40;99.90;;;;;;4936371;29;20220;-84
2022/04/22 13:00:25;;;;;;;6.38;3.20;;;15.30;99.90;;;;;;4936703;29;20186;-86
2022/04/22 13:02:50;;;;;;;3.80;3.05;;;15.20;99.90;;;;;;4937026;29;20209;-86
2022/04/22 13:05:22;;;;;;;4.82;2.97;;;15.10;99.90;;;;;;4936608;29;20648;-85
2022/04/22 13:07:50;;;;;;;5.03;3.00;;;15.00;99.90;;;;;;4936690;29;20680;-84
2022/04/22 13:10:22;;;;;;;3.97;3.20;;;14.90;99.90;;;;;;4936635;29;20316;-86
2022/04/22 13:12:48;;;;;;;6.20;3.42;;;14.80;99.90;;;;;;4936776;29;20185;-83
2022/04/22 13:15:19;;;;;;;6.70;3.40;;;14.80;99.90;;;;;;4937550;29;20170;-87
2022/04/22 13:17:46;;;;;;;5.60;3.40;;;14.80;99.90;;;;;;4936440;29;20249;-84
2022/04/22 13:20:14;;;;;;;6.28;3.70;;;14.80;99.90;;;;;;4936352;29;20525;-82
2022/04/22 13:22:40;;;;;;;4.75;3.35;;;14.80;99.90;;;;;;4949522;29;20208;-86
2022/04/22 13:25:10;;;;;;;5.22;3.40;;;14.90;99.90;;;;;;4955486;29;20189;-85
2022/04/22 13:27:36;;;;;;;6.45;3.67;;;14.90;99.90;;;;;;4955635;29;20177;-86
2022/04/22 13:30:03;;;;;;;5.45;3.80;;;14.90;99.90;;;;;;4955882;29;20188;-85
2022/04/22 13:32:29;;;;;;;6.30;4.28;;;15.00;99.90;;;;;;4955242;29;20616;-84
2022/04/22 13:34:54;;;;;;;6.47;3.78;;;15.00;99.90;;;;;;4955139;29;20185;-87
2022/04/22 13:37:20;;;;;;;6.28;3.83;;;15.10;99.90;;;;;;4956574;29;20219;-83
2022/04/22 13:39:46;;;;;;;12.52;3.80;;;15.10;99.90;;;;;;4955166;29;20205;-84
2022/04/22 13:42:11;;;;;;;7.13;3.97;;;15.10;99.90;;;;;;4956605;29;20609;-81
2022/04/22 13:52:51;;;;;;;7.45;3.95;;;14.90;99.90;;;;;;4942969;29;20351;-81
2022/04/22 13:55:17;;;;;;;8.77;3.70;;;14.80;99.90;;;;;;4937331;29;20625;-83
2022/04/22 13:57:43;;;;;;;5.05;3.67;;;14.70;99.90;;;;;;4939879;29;20177;-84
2022/04/22 14:00:10;;;;;;;7.40;3.38;;;14.60;99.90;;;;;;4939907;29;20199;-84
2022/04/22 14:02:37;;;;;;;5.20;3.70;;;14.60;99.90;;;;;;4939753;29;20205;-84
2022/04/22 14:05:03;;;;;;;5.40;3.67;;;14.50;99.90;;;;;;4939628;29;20274;-87